sensor_id;sensor_type;location;lat;lon;timestamp;pressure;altitude;pressure_sealevel;temperature;humidity
63883;BME280;50047;50.596;30.466;2022-08-21T18:53:34;99033.48;;;21.80;69.35
63883;BME280;50047;50.596;30.466;2022-08-21T18:56:03;99030.58;;;23.19;65.55
63883;BME280;50047;50.596;30.466;2022-08-21T18:58:32;99036.93;;;24.07;62.83
63883;BME280;50047;50.596;30.466;2022-08-21T19:00:59;99030.79;;;24.29;61.58
63883;BME280;50047;50.596;30.466;2022-08-21T19:03:26;99033.83;;;24.45;61.04
63883;BME280;50047;50.596;30.466;2022-08-21T19:05:54;99032.20;;;24.52;60.41
63883;BME280;50047;50.596;30.466;2022-08-21T19:08:22;99033.34;;;24.41;60.30
63883;BME280;50047;50.596;30.466;2022-08-21T19:10:54;99037.91;;;24.34;60.57
63883;BME280;50047;50.596;30.466;2022-08-21T19:13:22;99037.70;;;24.75;60.71
63883;BME280;50047;50.596;30.466;2022-08-21T19:15:51;99034.80;;;25.20;59.45
63883;BME280;50047;50.596;30.466;2022-08-21T19:18:24;99036.48;;;25.29;58.57
63883;BME280;50047;50.596;30.466;2022-08-21T19:21:12;99031.34;;;25.11;58.40
63883;BME280;50047;50.596;30.466;2022-08-21T19:23:39;99029.80;;;24.99;58.41
63883;BME280;50047;50.596;30.466;2022-08-21T19:26:10;99030.73;;;24.86;58.57
63883;BME280;50047;50.596;30.466;2022-08-21T19:28:41;99034.43;;;24.74;58.74
63883;BME280;50047;50.596;30.466;2022-08-21T19:31:37;99039.42;;;24.67;59.17
63883;BME280;50047;50.596;30.466;2022-08-21T19:34:10;99038.05;;;25.21;58.94
63883;BME280;50047;50.596;30.466;2022-08-21T19:36:41;99035.45;;;25.34;58.22
63883;BME280;50047;50.596;30.466;2022-08-21T19:39:09;99037.88;;;25.39;57.73
63883;BME280;50047;50.596;30.466;2022-08-21T19:41:42;99039.98;;;25.28;57.67
63883;BME280;50047;50.596;30.466;2022-08-21T19:44:18;99040.35;;;25.17;57.61
63883;BME280;50047;50.596;30.466;2022-08-21T19:46:47;99036.22;;;24.94;58.09
63883;BME280;50047;50.596;30.466;2022-08-21T19:49:19;99036.72;;;24.76;58.41
63883;BME280;50047;50.596;30.466;2022-08-21T19:51:48;99040.44;;;24.60;59.14
63883;BME280;50047;50.596;30.466;2022-08-21T19:54:22;99039.89;;;24.94;59.22
63883;BME280;50047;50.596;30.466;2022-08-21T19:56:54;99041.61;;;25.38;58.30
63883;BME280;50047;50.596;30.466;2022-08-21T19:59:23;99041.23;;;25.54;57.43
63883;BME280;50047;50.596;30.466;2022-08-21T20:01:51;99040.14;;;25.34;57.37
63883;BME280;50047;50.596;30.466;2022-08-21T20:04:19;99037.50;;;25.11;57.82
63883;BME280;50047;50.596;30.466;2022-08-21T20:06:47;99036.34;;;24.90;58.28
63883;BME280;50047;50.596;30.466;2022-08-21T20:09:15;99041.61;;;24.67;58.87
63883;BME280;50047;50.596;30.466;2022-08-21T20:11:49;99042.41;;;24.54;59.16
63883;BME280;50047;50.596;30.466;2022-08-21T20:14:20;99039.08;;;24.86;59.34
63883;BME280;50047;50.596;30.466;2022-08-21T20:16:48;99039.39;;;25.29;58.39
63883;BME280;50047;50.596;30.466;2022-08-21T20:19:38;99037.94;;;25.46;57.43
63883;BME280;50047;50.596;30.466;2022-08-21T20:22:06;99032.79;;;25.34;57.28
63883;BME280;50047;50.596;30.466;2022-08-21T20:24:35;99029.48;;;25.02;57.73
63883;BME280;50047;50.596;30.466;2022-08-21T20:27:03;99029.41;;;24.89;57.62
63883;BME280;50047;50.596;30.466;2022-08-21T20:29:51;99035.77;;;24.57;58.76
63883;BME280;50047;50.596;30.466;2022-08-21T20:32:18;99036.88;;;24.40;59.40
63883;BME280;50047;50.596;30.466;2022-08-21T20:35:06;99030.98;;;24.84;59.24
63883;BME280;50047;50.596;30.466;2022-08-21T20:37:39;99028.02;;;25.20;58.03
63883;BME280;50047;50.596;30.466;2022-08-21T20:40:09;99022.88;;;25.11;57.94
63883;BME280;50047;50.596;30.466;2022-08-21T20:42:40;99021.57;;;25.01;57.92
63883;BME280;50047;50.596;30.466;2022-08-21T20:45:11;99022.30;;;24.99;57.70
63883;BME280;50047;50.596;30.466;2022-08-21T20:47:44;99025.11;;;24.85;57.71
63883;BME280;50047;50.596;30.466;2022-08-21T20:50:16;99026.41;;;24.62;58.36
63883;BME280;50047;50.596;30.466;2022-08-21T20:52:48;99030.90;;;24.82;59.30
63883;BME280;50047;50.596;30.466;2022-08-21T20:55:21;99030.73;;;25.17;58.51
63883;BME280;50047;50.596;30.466;2022-08-21T20:58:02;99028.73;;;25.07;58.19
63883;BME280;50047;50.596;30.466;2022-08-21T21:00:34;99028.43;;;25.03;58.04
63883;BME280;50047;50.596;30.466;2022-08-21T21:05:52;99024.94;;;24.78;57.85
63883;BME280;50047;50.596;30.466;2022-08-21T21:08:25;99026.98;;;24.60;58.38
63883;BME280;50047;50.596;30.466;2022-08-21T21:10:59;99026.98;;;24.33;59.20
63883;BME280;50047;50.596;30.466;2022-08-21T21:13:35;99029.16;;;24.64;59.54
63883;BME280;50047;50.596;30.466;2022-08-21T21:16:13;99029.31;;;24.99;58.64
63883;BME280;50047;50.596;30.466;2022-08-21T21:18:50;99028.18;;;25.23;57.84
63883;BME280;50047;50.596;30.466;2022-08-21T21:21:34;99023.00;;;25.15;57.37
63883;BME280;50047;50.596;30.466;2022-08-21T21:24:08;99022.27;;;24.91;57.52
63883;BME280;50047;50.596;30.466;2022-08-21T21:26:46;99030.54;;;24.68;57.81
63883;BME280;50047;50.596;30.466;2022-08-21T21:31:55;99036.38;;;24.20;59.36
63883;BME280;50047;50.596;30.466;2022-08-21T21:34:24;99036.14;;;24.65;59.17
63883;BME280;50047;50.596;30.466;2022-08-21T21:36:56;99036.70;;;24.72;58.80
63883;BME280;50047;50.596;30.466;2022-08-21T21:42:33;99031.14;;;24.65;58.44
63883;BME280;50047;50.596;30.466;2022-08-21T21:45:21;99033.34;;;24.49;58.66
63883;BME280;50047;50.596;30.466;2022-08-21T22:13:07;99015.44;;;24.63;58.62
63883;BME280;50047;50.596;30.466;2022-08-21T22:15:49;99010.87;;;24.74;57.95
63883;BME280;50047;50.596;30.466;2022-08-21T22:18:30;99016.44;;;24.48;58.37
63883;BME280;50047;50.596;30.466;2022-08-21T22:21:08;99014.89;;;24.27;59.07
63883;BME280;50047;50.596;30.466;2022-08-21T22:23:42;99017.28;;;24.01;59.66
63883;BME280;50047;50.596;30.466;2022-08-21T22:26:14;99014.42;;;24.29;59.62
63883;BME280;50047;50.596;30.466;2022-08-21T22:28:44;99013.05;;;24.52;58.91
63883;BME280;50047;50.596;30.466;2022-08-21T22:34:16;99016.19;;;24.24;58.99
63883;BME280;50047;50.596;30.466;2022-08-21T22:36:54;99013.80;;;24.00;59.74
63883;BME280;50047;50.596;30.466;2022-08-21T22:39:43;99007.21;;;23.77;60.31
63883;BME280;50047;50.596;30.466;2022-08-21T22:42:21;99009.50;;;24.32;59.68
63883;BME280;50047;50.596;30.466;2022-08-21T22:45:09;99009.62;;;24.50;59.03
63883;BME280;50047;50.596;30.466;2022-08-21T22:47:43;99006.02;;;24.49;58.59
63883;BME280;50047;50.596;30.466;2022-08-21T22:52:57;99000.08;;;23.93;59.47
63883;BME280;50047;50.596;30.466;2022-08-21T22:55:40;98999.57;;;23.72;60.08
63883;BME280;50047;50.596;30.466;2022-08-21T22:58:35;99001.02;;;24.21;59.92
63883;BME280;50047;50.596;30.466;2022-08-21T23:03:49;98999.14;;;24.30;59.04
63883;BME280;50047;50.596;30.466;2022-08-21T23:06:39;99001.98;;;24.17;58.92
63883;BME280;50047;50.596;30.466;2022-08-21T23:11:47;98999.86;;;23.74;60.00
63883;BME280;50047;50.596;30.466;2022-08-21T23:14:17;99001.88;;;24.21;59.86
63883;BME280;50047;50.596;30.466;2022-08-21T23:17:19;99001.94;;;24.51;58.92
63883;BME280;50047;50.596;30.466;2022-08-21T23:23:01;98999.38;;;24.11;59.08
63883;BME280;50047;50.596;30.466;2022-08-21T23:44:48;98985.42;;;23.68;59.46
63883;BME280;50047;50.596;30.466;2022-08-21T23:47:39;98986.90;;;23.92;59.82
63883;BME280;50047;50.596;30.466;2022-08-21T23:50:28;98986.81;;;24.25;58.99
63883;BME280;50047;50.596;30.466;2022-08-21T23:56:07;98991.35;;;24.11;58.41
